MRLBMSSS

Guest
Details From MRLB - Daniel Oduber Quiros Intl
To MSSS - ILOPANGO INTL
Flight Number -
Tags generated
Created
Modified
Stats Distance 281 nm / 521 km
Max Altitude 20,500 ft / 6,248 m
Waypoints 6
Social Downloads 0
Likes 0
Share VATSIM

Download

Looking for another format? Having issues loading an existing format? Contact us
Advertisement - Login to hide

Notes

Basic altitude profile: - Ascent Rate: 2500ft/min - Ascent Speed: 250kts - Cruise Altitude: 35000ft - Cruise Speed: 420kts - Descent Rate: 1500ft/min - Descent Speed: 250kts Options: - Use NATs: yes - Use PACOTS: yes - Use low airways: yes - Use high airways: yes

Route

MRLB LIB G436 ARLEN UG436 ANAPO MSSS

ID Type Via Altitude Latitude Longitude Leg Dist Tot Dist Heading (true) Name
O MRLB APT - 0 ft / 0 m 10.59329˚ -85.54441˚ - 0 nm - Daniel Oduber Quiros Intl
LIB VOR - 0 ft / 0 m 10.59419˚ -85.54636˚ 0 nm 0 nm 295° / 295° LIBERIA VOR-DME
ELENA FIX G436 (AWY-LO) 9,300 ft / 2,835 m 10.86639˚ -85.88917˚ 26 nm 26 nm 309° / 309° -
ARLEN FIX G436 (AWY-LO) 18,500 ft / 5,639 m 11.80000˚ -87.06778˚ 89 nm 115 nm 309° / 309° -
ANAPO FIX UG436 (AWY-HI) 20,500 ft / 6,248 m 12.53000˚ -87.99889˚ 70 nm 185 nm 309° / 309° -
O MSSS APT - 0 ft / 0 m 13.69880˚ -89.11985˚ 96 nm 281 nm 317° / 317° ILOPANGO INTL

Altitude Profile

Advertisement - Login to hide

Weather


0- 5 10 15 20 25 30 35+ Temperature / ° C

Clouds and Precipitation
Forecast for 2017-12-17 18:00 UTC. Updated 16 minutes ago

Ground ~20,000 ft ~40,000 ft Winds

MRLB

Details ICAO MRLB (LIR)
Name Daniel Oduber Quiros Intl
Region Costa Rica
Timezone America/Costa_Rica (UTC-6.0)
Stats Elevation 270 ft / 82 m (AMSL)
Location 10.593289° -85.544410°
Runways 1
Magnetic Variation 1.042° W

METAR

MRLB 171300Z 13006KT CAVOK 26/20 A2983 NOSIG

Decode

TAF

Not found

Departure Runways

ID Width Length Bearing (true) Bearing (mag) Surface Threshold Offset Overrun Length
07 148 ft / 45 m 9,068 ft / 2,764 m 70.05° 71.09° Asphalt 0 ft / 0 m 0 ft / 0 m
25 148 ft / 45 m 9,068 ft / 2,764 m 250.05° 251.09° Asphalt 0 ft / 0 m 0 ft / 0 m

MSSS

Details ICAO MSSS
Name ILOPANGO INTL
Region El Salvador
Timezone America/El_Salvador (UTC-6.0)
Stats Elevation 2,020 ft / 616 m (AMSL)
Location 13.698802° -89.119849°
Runways 1
Magnetic Variation 0.449° E

METAR

MSSS 171250Z 36005KT CAVOK 20/18 Q1016 A3003

Decode

TAF

Not found

Destination Runways

ID Width Length Bearing (true) Bearing (mag) Surface Threshold Offset Overrun Length
15 148 ft / 45 m 7,350 ft / 2,240 m 153.66° 153.21° Asphalt 0 ft / 0 m 0 ft / 0 m
33 148 ft / 45 m 7,350 ft / 2,240 m 333.66° 333.21° Asphalt 0 ft / 0 m 0 ft / 0 m

Popular Alternatives